sensor_id;sensor_type;location;lat;lon;timestamp;temperature;humidity
39881;DHT22;25554;44.954;10.068;2023-07-13T00:02:17;25.10;99.90
39881;DHT22;25554;44.954;10.068;2023-07-13T00:04:43;25.00;99.90
39881;DHT22;25554;44.954;10.068;2023-07-13T00:07:12;25.00;99.90
39881;DHT22;25554;44.954;10.068;2023-07-13T00:09:40;25.00;99.90
39881;DHT22;25554;44.954;10.068;2023-07-13T00:12:23;25.00;99.90
39881;DHT22;25554;44.954;10.068;2023-07-13T00:14:50;25.00;99.90
39881;DHT22;25554;44.954;10.068;2023-07-13T00:17:16;25.00;99.90
39881;DHT22;25554;44.954;10.068;2023-07-13T00:19:43;25.00;99.90
39881;DHT22;25554;44.954;10.068;2023-07-13T00:22:09;25.00;99.90
39881;DHT22;25554;44.954;10.068;2023-07-13T00:24:35;24.90;99.90
39881;DHT22;25554;44.954;10.068;2023-07-13T00:27:02;24.80;99.90
39881;DHT22;25554;44.954;10.068;2023-07-13T00:29:29;24.60;99.90
39881;DHT22;25554;44.954;10.068;2023-07-13T00:31:56;24.60;99.90
39881;DHT22;25554;44.954;10.068;2023-07-13T00:34:23;24.60;99.90
39881;DHT22;25554;44.954;10.068;2023-07-13T00:36:50;24.60;99.90
39881;DHT22;25554;44.954;10.068;2023-07-13T00:39:16;24.60;99.90
39881;DHT22;25554;44.954;10.068;2023-07-13T00:41:42;24.80;99.90
39881;DHT22;25554;44.954;10.068;2023-07-13T00:44:17;24.70;99.90
39881;DHT22;25554;44.954;10.068;2023-07-13T00:46:44;24.80;99.90
39881;DHT22;25554;44.954;10.068;2023-07-13T00:49:13;24.80;99.90
39881;DHT22;25554;44.954;10.068;2023-07-13T00:51:48;24.80;99.90
39881;DHT22;25554;44.954;10.068;2023-07-13T00:54:56;24.80;99.90
39881;DHT22;25554;44.954;10.068;2023-07-13T00:57:19;24.70;99.90
39881;DHT22;25554;44.954;10.068;2023-07-13T00:59:51;24.60;99.90
39881;DHT22;25554;44.954;10.068;2023-07-13T01:02:18;24.60;99.90
39881;DHT22;25554;44.954;10.068;2023-07-13T01:04:44;24.70;99.90
39881;DHT22;25554;44.954;10.068;2023-07-13T01:07:11;24.60;99.90
39881;DHT22;25554;44.954;10.068;2023-07-13T01:09:38;24.60;99.90
39881;DHT22;25554;44.954;10.068;2023-07-13T01:12:04;24.50;99.90
39881;DHT22;25554;44.954;10.068;2023-07-13T01:14:31;24.50;99.90
39881;DHT22;25554;44.954;10.068;2023-07-13T01:16:57;24.40;99.90
39881;DHT22;25554;44.954;10.068;2023-07-13T01:22:07;24.30;99.90
39881;DHT22;25554;44.954;10.068;2023-07-13T01:24:38;24.30;99.90
39881;DHT22;25554;44.954;10.068;2023-07-13T01:27:07;24.20;99.90
39881;DHT22;25554;44.954;10.068;2023-07-13T01:29:35;24.20;99.90
39881;DHT22;25554;44.954;10.068;2023-07-13T01:32:10;24.20;99.90
39881;DHT22;25554;44.954;10.068;2023-07-13T01:34:36;24.20;99.90
39881;DHT22;25554;44.954;10.068;2023-07-13T01:37:04;24.20;99.90
39881;DHT22;25554;44.954;10.068;2023-07-13T01:39:31;24.10;99.90
39881;DHT22;25554;44.954;10.068;2023-07-13T01:41:58;24.10;99.90
39881;DHT22;25554;44.954;10.068;2023-07-13T01:44:24;24.00;99.90
39881;DHT22;25554;44.954;10.068;2023-07-13T01:46:52;24.10;99.90
39881;DHT22;25554;44.954;10.068;2023-07-13T01:49:18;24.00;99.90
39881;DHT22;25554;44.954;10.068;2023-07-13T01:51:44;23.80;99.90
39881;DHT22;25554;44.954;10.068;2023-07-13T01:54:11;23.60;99.90
39881;DHT22;25554;44.954;10.068;2023-07-13T01:56:37;23.40;99.90
39881;DHT22;25554;44.954;10.068;2023-07-13T01:59:03;23.40;99.90
39881;DHT22;25554;44.954;10.068;2023-07-13T02:01:30;23.40;99.90
39881;DHT22;25554;44.954;10.068;2023-07-13T02:03:56;23.50;99.90
39881;DHT22;25554;44.954;10.068;2023-07-13T02:06:22;23.60;99.90
39881;DHT22;25554;44.954;10.068;2023-07-13T02:08:48;23.60;99.90
39881;DHT22;25554;44.954;10.068;2023-07-13T02:11:15;23.50;99.90
39881;DHT22;25554;44.954;10.068;2023-07-13T02:13:41;23.40;99.90
39881;DHT22;25554;44.954;10.068;2023-07-13T02:16:07;23.40;99.90
39881;DHT22;25554;44.954;10.068;2023-07-13T02:18:33;23.30;99.90
39881;DHT22;25554;44.954;10.068;2023-07-13T02:21:00;23.20;99.90
39881;DHT22;25554;44.954;10.068;2023-07-13T02:23:26;23.10;99.90
39881;DHT22;25554;44.954;10.068;2023-07-13T02:25:59;22.90;99.90
39881;DHT22;25554;44.954;10.068;2023-07-13T02:28:27;23.00;99.90
39881;DHT22;25554;44.954;10.068;2023-07-13T02:30:53;23.00;99.90
39881;DHT22;25554;44.954;10.068;2023-07-13T02:33:19;23.00;99.90
39881;DHT22;25554;44.954;10.068;2023-07-13T02:35:48;23.10;99.90
39881;DHT22;25554;44.954;10.068;2023-07-13T02:38:14;23.00;99.90
39881;DHT22;25554;44.954;10.068;2023-07-13T02:40:40;23.00;99.90
39881;DHT22;25554;44.954;10.068;2023-07-13T02:43:06;23.00;99.90
39881;DHT22;25554;44.954;10.068;2023-07-13T02:45:33;23.00;99.90
39881;DHT22;25554;44.954;10.068;2023-07-13T02:47:59;23.10;99.90
39881;DHT22;25554;44.954;10.068;2023-07-13T02:50:26;23.10;99.90
39881;DHT22;25554;44.954;10.068;2023-07-13T02:52:52;23.10;99.90
39881;DHT22;25554;44.954;10.068;2023-07-13T02:55:18;23.10;99.90
39881;DHT22;25554;44.954;10.068;2023-07-13T02:57:44;23.10;99.90
39881;DHT22;25554;44.954;10.068;2023-07-13T03:00:11;23.00;99.90
39881;DHT22;25554;44.954;10.068;2023-07-13T03:02:38;22.90;99.90
39881;DHT22;25554;44.954;10.068;2023-07-13T03:05:05;22.80;99.90
39881;DHT22;25554;44.954;10.068;2023-07-13T03:07:32;22.80;99.90
39881;DHT22;25554;44.954;10.068;2023-07-13T03:09:58;22.90;99.90
39881;DHT22;25554;44.954;10.068;2023-07-13T03:12:33;22.90;99.90
39881;DHT22;25554;44.954;10.068;2023-07-13T03:15:01;22.90;99.90
39881;DHT22;25554;44.954;10.068;2023-07-13T03:17:28;22.70;99.90
39881;DHT22;25554;44.954;10.068;2023-07-13T03:19:55;22.60;99.90
39881;DHT22;25554;44.954;10.068;2023-07-13T03:22:21;22.40;99.90
39881;DHT22;25554;44.954;10.068;2023-07-13T03:24:47;22.40;99.90
39881;DHT22;25554;44.954;10.068;2023-07-13T03:27:17;22.40;99.90
39881;DHT22;25554;44.954;10.068;2023-07-13T03:29:44;22.20;99.90
39881;DHT22;25554;44.954;10.068;2023-07-13T03:32:11;22.00;99.90
39881;DHT22;25554;44.954;10.068;2023-07-13T03:34:38;22.00;99.90
39881;DHT22;25554;44.954;10.068;2023-07-13T03:37:05;22.10;99.90
39881;DHT22;25554;44.954;10.068;2023-07-13T03:39:32;22.00;99.90
39881;DHT22;25554;44.954;10.068;2023-07-13T03:41:58;22.00;99.90
39881;DHT22;25554;44.954;10.068;2023-07-13T03:44:25;22.00;99.90
39881;DHT22;25554;44.954;10.068;2023-07-13T03:46:55;22.10;99.90
39881;DHT22;25554;44.954;10.068;2023-07-13T03:49:21;22.20;99.90
39881;DHT22;25554;44.954;10.068;2023-07-13T03:51:47;22.20;99.90
39881;DHT22;25554;44.954;10.068;2023-07-13T03:54:14;22.20;99.90
39881;DHT22;25554;44.954;10.068;2023-07-13T03:56:40;22.30;99.90
39881;DHT22;25554;44.954;10.068;2023-07-13T03:59:08;22.30;99.90
39881;DHT22;25554;44.954;10.068;2023-07-13T04:01:34;22.40;99.90
39881;DHT22;25554;44.954;10.068;2023-07-13T04:04:01;22.40;99.90
39881;DHT22;25554;44.954;10.068;2023-07-13T04:06:29;22.40;99.90
39881;DHT22;25554;44.954;10.068;2023-07-13T04:09:00;22.40;99.90
39881;DHT22;25554;44.954;10.068;2023-07-13T04:11:30;22.50;99.90
39881;DHT22;25554;44.954;10.068;2023-07-13T04:13:57;22.50;99.90
39881;DHT22;25554;44.954;10.068;2023-07-13T04:16:25;22.60;99.90
39881;DHT22;25554;44.954;10.068;2023-07-13T04:18:52;22.70;99.90
39881;DHT22;25554;44.954;10.068;2023-07-13T04:21:26;22.80;99.90
39881;DHT22;25554;44.954;10.068;2023-07-13T04:23:54;22.90;99.90
39881;DHT22;25554;44.954;10.068;2023-07-13T04:26:21;23.00;99.90
39881;DHT22;25554;44.954;10.068;2023-07-13T04:28:49;23.10;99.90
39881;DHT22;25554;44.954;10.068;2023-07-13T04:31:16;23.10;99.90
39881;DHT22;25554;44.954;10.068;2023-07-13T04:33:42;23.10;99.90
39881;DHT22;25554;44.954;10.068;2023-07-13T04:36:09;23.10;99.90
39881;DHT22;25554;44.954;10.068;2023-07-13T04:38:36;23.20;99.90
39881;DHT22;25554;44.954;10.068;2023-07-13T04:41:05;23.20;99.90
39881;DHT22;25554;44.954;10.068;2023-07-13T04:43:32;23.20;99.90
39881;DHT22;25554;44.954;10.068;2023-07-13T04:46:06;23.20;99.90
39881;DHT22;25554;44.954;10.068;2023-07-13T04:48:33;23.30;99.90
39881;DHT22;25554;44.954;10.068;2023-07-13T04:51:00;23.20;99.90
39881;DHT22;25554;44.954;10.068;2023-07-13T04:53:28;23.30;99.90
39881;DHT22;25554;44.954;10.068;2023-07-13T04:55:55;23.30;99.90
39881;DHT22;25554;44.954;10.068;2023-07-13T04:58:22;23.30;99.90
39881;DHT22;25554;44.954;10.068;2023-07-13T05:00:49;23.30;99.90
39881;DHT22;25554;44.954;10.068;2023-07-13T05:03:15;23.30;99.90
39881;DHT22;25554;44.954;10.068;2023-07-13T05:05:42;23.30;99.90
39881;DHT22;25554;44.954;10.068;2023-07-13T05:08:08;23.20;99.90
39881;DHT22;25554;44.954;10.068;2023-07-13T05:10:35;23.20;99.90
39881;DHT22;25554;44.954;10.068;2023-07-13T05:13:01;23.10;99.90
39881;DHT22;25554;44.954;10.068;2023-07-13T05:15:28;23.20;99.90
39881;DHT22;25554;44.954;10.068;2023-07-13T05:17:54;23.20;99.90
39881;DHT22;25554;44.954;10.068;2023-07-13T05:20:20;23.10;99.90
39881;DHT22;25554;44.954;10.068;2023-07-13T05:22:46;23.10;99.90
39881;DHT22;25554;44.954;10.068;2023-07-13T05:25:13;23.00;99.90
39881;DHT22;25554;44.954;10.068;2023-07-13T05:27:39;23.00;99.90
39881;DHT22;25554;44.954;10.068;2023-07-13T05:30:06;23.00;99.90
39881;DHT22;25554;44.954;10.068;2023-07-13T05:32:33;23.00;99.90
39881;DHT22;25554;44.954;10.068;2023-07-13T05:34:59;22.90;99.90
39881;DHT22;25554;44.954;10.068;2023-07-13T05:37:25;22.90;99.90
39881;DHT22;25554;44.954;10.068;2023-07-13T05:39:52;22.80;99.90
39881;DHT22;25554;44.954;10.068;2023-07-13T05:42:18;22.70;99.90
39881;DHT22;25554;44.954;10.068;2023-07-13T05:44:44;22.60;99.90
39881;DHT22;25554;44.954;10.068;2023-07-13T05:47:10;22.60;99.90
39881;DHT22;25554;44.954;10.068;2023-07-13T05:49:37;22.70;99.90
39881;DHT22;25554;44.954;10.068;2023-07-13T05:52:03;22.80;99.90
39881;DHT22;25554;44.954;10.068;2023-07-13T05:54:29;22.70;99.90
39881;DHT22;25554;44.954;10.068;2023-07-13T05:56:55;22.60;99.90
39881;DHT22;25554;44.954;10.068;2023-07-13T05:59:22;22.60;99.90
39881;DHT22;25554;44.954;10.068;2023-07-13T06:01:49;22.60;99.90
39881;DHT22;25554;44.954;10.068;2023-07-13T06:04:15;22.60;99.90
39881;DHT22;25554;44.954;10.068;2023-07-13T06:06:41;22.60;99.90
39881;DHT22;25554;44.954;10.068;2023-07-13T06:09:07;22.50;99.90
39881;DHT22;25554;44.954;10.068;2023-07-13T06:11:34;22.50;99.90
39881;DHT22;25554;44.954;10.068;2023-07-13T06:14:01;22.60;99.90
39881;DHT22;25554;44.954;10.068;2023-07-13T06:16:27;22.60;99.90
39881;DHT22;25554;44.954;10.068;2023-07-13T06:18:53;22.50;99.90
39881;DHT22;25554;44.954;10.068;2023-07-13T06:21:21;22.60;99.90
39881;DHT22;25554;44.954;10.068;2023-07-13T06:23:49;22.60;99.90
39881;DHT22;25554;44.954;10.068;2023-07-13T06:26:17;22.60;99.90
39881;DHT22;25554;44.954;10.068;2023-07-13T06:28:44;22.50;99.90
39881;DHT22;25554;44.954;10.068;2023-07-13T06:31:11;22.50;99.90
39881;DHT22;25554;44.954;10.068;2023-07-13T06:33:38;22.50;99.90
39881;DHT22;25554;44.954;10.068;2023-07-13T06:36:05;22.60;99.90
39881;DHT22;25554;44.954;10.068;2023-07-13T06:38:32;22.60;99.90
39881;DHT22;25554;44.954;10.068;2023-07-13T06:40:58;22.60;99.90
39881;DHT22;25554;44.954;10.068;2023-07-13T06:43:24;22.60;99.90
39881;DHT22;25554;44.954;10.068;2023-07-13T06:45:54;22.60;99.90
39881;DHT22;25554;44.954;10.068;2023-07-13T06:48:20;22.70;99.90
39881;DHT22;25554;44.954;10.068;2023-07-13T06:50:48;22.70;99.90
39881;DHT22;25554;44.954;10.068;2023-07-13T06:53:16;22.70;99.90
39881;DHT22;25554;44.954;10.068;2023-07-13T06:55:44;22.80;99.90
39881;DHT22;25554;44.954;10.068;2023-07-13T06:58:11;22.80;99.90
39881;DHT22;25554;44.954;10.068;2023-07-13T07:00:37;22.80;99.90
39881;DHT22;25554;44.954;10.068;2023-07-13T07:03:06;22.80;99.90
39881;DHT22;25554;44.954;10.068;2023-07-13T07:05:32;22.80;99.90
39881;DHT22;25554;44.954;10.068;2023-07-13T07:07:59;22.80;99.90
39881;DHT22;25554;44.954;10.068;2023-07-13T07:10:25;22.80;99.90
39881;DHT22;25554;44.954;10.068;2023-07-13T07:12:52;22.70;99.90
39881;DHT22;25554;44.954;10.068;2023-07-13T07:15:18;22.80;99.90
39881;DHT22;25554;44.954;10.068;2023-07-13T07:17:45;22.80;99.90
39881;DHT22;25554;44.954;10.068;2023-07-13T07:20:11;22.80;99.90
39881;DHT22;25554;44.954;10.068;2023-07-13T07:22:37;22.80;99.90
39881;DHT22;25554;44.954;10.068;2023-07-13T07:25:04;22.80;99.90
39881;DHT22;25554;44.954;10.068;2023-07-13T07:27:32;22.90;99.90
39881;DHT22;25554;44.954;10.068;2023-07-13T07:29:59;22.80;99.90
39881;DHT22;25554;44.954;10.068;2023-07-13T07:32:28;22.90;99.90
39881;DHT22;25554;44.954;10.068;2023-07-13T07:34:55;22.90;99.90
39881;DHT22;25554;44.954;10.068;2023-07-13T07:37:21;22.90;99.90
39881;DHT22;25554;44.954;10.068;2023-07-13T07:39:47;23.00;99.90
39881;DHT22;25554;44.954;10.068;2023-07-13T07:42:13;23.00;99.90
39881;DHT22;25554;44.954;10.068;2023-07-13T07:44:40;23.00;99.90
39881;DHT22;25554;44.954;10.068;2023-07-13T07:47:07;23.00;99.90
39881;DHT22;25554;44.954;10.068;2023-07-13T07:49:33;23.00;99.90
39881;DHT22;25554;44.954;10.068;2023-07-13T07:52:00;22.90;99.90
39881;DHT22;25554;44.954;10.068;2023-07-13T07:54:26;22.90;99.90
39881;DHT22;25554;44.954;10.068;2023-07-13T07:56:52;22.90;99.90
39881;DHT22;25554;44.954;10.068;2023-07-13T07:59:19;22.80;99.90
39881;DHT22;25554;44.954;10.068;2023-07-13T08:01:45;22.90;99.90
39881;DHT22;25554;44.954;10.068;2023-07-13T08:04:13;22.80;99.90
39881;DHT22;25554;44.954;10.068;2023-07-13T08:06:40;22.90;99.90
39881;DHT22;25554;44.954;10.068;2023-07-13T08:09:06;22.90;99.90
39881;DHT22;25554;44.954;10.068;2023-07-13T08:11:34;22.90;99.90
39881;DHT22;25554;44.954;10.068;2023-07-13T08:14:00;22.90;99.90
39881;DHT22;25554;44.954;10.068;2023-07-13T08:16:27;22.90;99.90
39881;DHT22;25554;44.954;10.068;2023-07-13T08:18:53;22.80;99.90
39881;DHT22;25554;44.954;10.068;2023-07-13T08:21:21;22.90;99.90
39881;DHT22;25554;44.954;10.068;2023-07-13T08:23:48;22.90;99.90
39881;DHT22;25554;44.954;10.068;2023-07-13T08:26:17;22.90;99.90
39881;DHT22;25554;44.954;10.068;2023-07-13T08:28:44;22.90;99.90
39881;DHT22;25554;44.954;10.068;2023-07-13T08:31:10;23.00;99.90
39881;DHT22;25554;44.954;10.068;2023-07-13T08:33:37;23.00;99.90
39881;DHT22;25554;44.954;10.068;2023-07-13T08:36:04;23.00;99.90
39881;DHT22;25554;44.954;10.068;2023-07-13T08:38:31;23.00;99.90
39881;DHT22;25554;44.954;10.068;2023-07-13T08:40:57;23.10;99.90
39881;DHT22;25554;44.954;10.068;2023-07-13T08:43:29;23.10;99.90
39881;DHT22;25554;44.954;10.068;2023-07-13T08:46:23;23.20;99.90
39881;DHT22;25554;44.954;10.068;2023-07-13T08:48:52;23.20;99.90
39881;DHT22;25554;44.954;10.068;2023-07-13T08:51:33;23.20;99.90
39881;DHT22;25554;44.954;10.068;2023-07-13T08:54:10;23.30;99.90
39881;DHT22;25554;44.954;10.068;2023-07-13T08:56:38;23.40;99.90
39881;DHT22;25554;44.954;10.068;2023-07-13T08:59:16;23.50;99.90
39881;DHT22;25554;44.954;10.068;2023-07-13T09:04:44;23.60;99.90
39881;DHT22;25554;44.954;10.068;2023-07-13T09:10:17;23.90;99.90
39881;DHT22;25554;44.954;10.068;2023-07-13T09:15:36;24.30;99.90
39881;DHT22;25554;44.954;10.068;2023-07-13T09:21:29;24.80;99.90
39881;DHT22;25554;44.954;10.068;2023-07-13T09:23:30;25.00;99.90
39881;DHT22;25554;44.954;10.068;2023-07-13T09:26:16;25.10;99.90
39881;DHT22;25554;44.954;10.068;2023-07-13T09:28:47;25.30;99.90
39881;DHT22;25554;44.954;10.068;2023-07-13T09:31:17;25.50;99.90
39881;DHT22;25554;44.954;10.068;2023-07-13T09:33:45;25.90;99.90
39881;DHT22;25554;44.954;10.068;2023-07-13T09:36:30;26.00;99.90
39881;DHT22;25554;44.954;10.068;2023-07-13T09:46:21;27.10;99.90
39881;DHT22;25554;44.954;10.068;2023-07-13T09:56:23;27.10;99.90
39881;DHT22;25554;44.954;10.068;2023-07-13T09:58:53;26.90;99.90
39881;DHT22;25554;44.954;10.068;2023-07-13T10:05:22;27.10;99.90
39881;DHT22;25554;44.954;10.068;2023-07-13T10:07:56;27.80;99.90
39881;DHT22;25554;44.954;10.068;2023-07-13T10:10:24;28.00;99.90
39881;DHT22;25554;44.954;10.068;2023-07-13T10:12:51;28.00;99.90
39881;DHT22;25554;44.954;10.068;2023-07-13T10:15:20;28.20;99.90
39881;DHT22;25554;44.954;10.068;2023-07-13T10:17:48;28.20;99.90
39881;DHT22;25554;44.954;10.068;2023-07-13T10:28:29;28.70;99.90
39881;DHT22;25554;44.954;10.068;2023-07-13T10:31:01;28.90;99.90
39881;DHT22;25554;44.954;10.068;2023-07-13T10:33:33;28.90;99.90
39881;DHT22;25554;44.954;10.068;2023-07-13T10:36:29;29.00;99.90
39881;DHT22;25554;44.954;10.068;2023-07-13T10:39:27;29.00;99.90
39881;DHT22;25554;44.954;10.068;2023-07-13T10:42:00;29.10;99.90
39881;DHT22;25554;44.954;10.068;2023-07-13T10:44:30;29.20;99.90
39881;DHT22;25554;44.954;10.068;2023-07-13T10:47:08;29.30;99.90
39881;DHT22;25554;44.954;10.068;2023-07-13T10:49:38;29.20;99.90
39881;DHT22;25554;44.954;10.068;2023-07-13T10:52:20;29.20;99.90
39881;DHT22;25554;44.954;10.068;2023-07-13T10:54:52;29.30;99.90
39881;DHT22;25554;44.954;10.068;2023-07-13T10:57:21;29.50;99.90
39881;DHT22;25554;44.954;10.068;2023-07-13T10:59:49;29.30;99.90
39881;DHT22;25554;44.954;10.068;2023-07-13T11:02:35;29.40;99.90
39881;DHT22;25554;44.954;10.068;2023-07-13T11:05:26;29.40;99.90
39881;DHT22;25554;44.954;10.068;2023-07-13T11:10:54;29.00;99.90
39881;DHT22;25554;44.954;10.068;2023-07-13T11:16:45;29.50;99.90
39881;DHT22;25554;44.954;10.068;2023-07-13T11:22:11;29.80;99.90
39881;DHT22;25554;44.954;10.068;2023-07-13T11:25:02;30.00;99.90
39881;DHT22;25554;44.954;10.068;2023-07-13T11:27:51;30.10;99.90
39881;DHT22;25554;44.954;10.068;2023-07-13T11:30:32;30.30;99.90
39881;DHT22;25554;44.954;10.068;2023-07-13T11:35:35;30.70;99.90
39881;DHT22;25554;44.954;10.068;2023-07-13T11:38:03;31.00;99.90
39881;DHT22;25554;44.954;10.068;2023-07-13T11:40:40;30.80;99.90
39881;DHT22;25554;44.954;10.068;2023-07-13T11:47:39;30.60;99.90
39881;DHT22;25554;44.954;10.068;2023-07-13T11:50:49;30.50;99.90
39881;DHT22;25554;44.954;10.068;2023-07-13T11:53:52;30.20;99.90
39881;DHT22;25554;44.954;10.068;2023-07-13T12:00:38;30.00;99.90
39881;DHT22;25554;44.954;10.068;2023-07-13T12:06:35;30.50;99.90
39881;DHT22;25554;44.954;10.068;2023-07-13T12:09:14;30.90;99.90
39881;DHT22;25554;44.954;10.068;2023-07-13T12:11:44;31.20;99.90
39881;DHT22;25554;44.954;10.068;2023-07-13T12:14:17;31.40;99.90
39881;DHT22;25554;44.954;10.068;2023-07-13T12:16:45;31.00;99.90
39881;DHT22;25554;44.954;10.068;2023-07-13T12:19:30;30.80;99.90
39881;DHT22;25554;44.954;10.068;2023-07-13T12:21:58;30.60;99.90
39881;DHT22;25554;44.954;10.068;2023-07-13T12:24:28;30.70;99.90
39881;DHT22;25554;44.954;10.068;2023-07-13T12:27:02;30.70;99.90
39881;DHT22;25554;44.954;10.068;2023-07-13T12:29:33;30.70;99.90
39881;DHT22;25554;44.954;10.068;2023-07-13T12:31:59;30.60;99.90
39881;DHT22;25554;44.954;10.068;2023-07-13T12:47:02;31.40;99.90
39881;DHT22;25554;44.954;10.068;2023-07-13T14:01:23;31.30;99.90
39881;DHT22;25554;44.954;10.068;2023-07-13T14:03:50;31.20;99.90
39881;DHT22;25554;44.954;10.068;2023-07-13T14:06:20;31.20;99.90
39881;DHT22;25554;44.954;10.068;2023-07-13T14:08:46;31.30;99.90
39881;DHT22;25554;44.954;10.068;2023-07-13T14:11:19;31.50;99.90
39881;DHT22;25554;44.954;10.068;2023-07-13T14:13:56;31.70;99.90
39881;DHT22;25554;44.954;10.068;2023-07-13T14:16:28;31.90;99.90
39881;DHT22;25554;44.954;10.068;2023-07-13T14:18:55;32.00;99.90
39881;DHT22;25554;44.954;10.068;2023-07-13T14:21:24;32.10;99.90
39881;DHT22;25554;44.954;10.068;2023-07-13T14:23:51;32.30;99.90
39881;DHT22;25554;44.954;10.068;2023-07-13T14:26:20;32.40;99.90
39881;DHT22;25554;44.954;10.068;2023-07-13T14:28:54;32.50;99.90
39881;DHT22;25554;44.954;10.068;2023-07-13T14:31:22;32.40;99.90
39881;DHT22;25554;44.954;10.068;2023-07-13T14:33:48;32.30;99.90
39881;DHT22;25554;44.954;10.068;2023-07-13T14:36:30;32.30;99.90
39881;DHT22;25554;44.954;10.068;2023-07-13T14:38:58;32.40;99.90
39881;DHT22;25554;44.954;10.068;2023-07-13T14:41:25;32.40;99.90
39881;DHT22;25554;44.954;10.068;2023-07-13T14:43:51;32.30;99.90
39881;DHT22;25554;44.954;10.068;2023-07-13T14:48:48;32.80;99.90
39881;DHT22;25554;44.954;10.068;2023-07-13T15:22:14;32.80;99.90
39881;DHT22;25554;44.954;10.068;2023-07-13T15:25:07;32.90;99.90
39881;DHT22;25554;44.954;10.068;2023-07-13T15:28:34;32.90;99.90
39881;DHT22;25554;44.954;10.068;2023-07-13T15:31:35;33.00;99.90
39881;DHT22;25554;44.954;10.068;2023-07-13T15:34:15;32.70;99.90
39881;DHT22;25554;44.954;10.068;2023-07-13T15:36:42;32.80;99.90
39881;DHT22;25554;44.954;10.068;2023-07-13T15:39:16;32.90;99.90
39881;DHT22;25554;44.954;10.068;2023-07-13T15:41:51;33.10;99.90
39881;DHT22;25554;44.954;10.068;2023-07-13T15:44:29;33.10;99.90
39881;DHT22;25554;44.954;10.068;2023-07-13T15:47:00;33.00;99.90
39881;DHT22;25554;44.954;10.068;2023-07-13T15:49:42;33.00;99.90
39881;DHT22;25554;44.954;10.068;2023-07-13T15:52:20;32.90;99.90
39881;DHT22;25554;44.954;10.068;2023-07-13T15:54:48;33.10;99.90
39881;DHT22;25554;44.954;10.068;2023-07-13T15:57:15;33.20;99.90
39881;DHT22;25554;44.954;10.068;2023-07-13T15:59:44;33.20;99.90
39881;DHT22;25554;44.954;10.068;2023-07-13T16:02:17;33.00;99.90
39881;DHT22;25554;44.954;10.068;2023-07-13T16:04:44;33.00;99.90
39881;DHT22;25554;44.954;10.068;2023-07-13T16:07:15;32.70;99.90
39881;DHT22;25554;44.954;10.068;2023-07-13T16:09:50;32.60;99.90
39881;DHT22;25554;44.954;10.068;2023-07-13T16:12:17;32.60;99.90
39881;DHT22;25554;44.954;10.068;2023-07-13T16:14:43;32.50;99.90
39881;DHT22;25554;44.954;10.068;2023-07-13T16:17:13;32.40;99.90
39881;DHT22;25554;44.954;10.068;2023-07-13T16:19:41;32.40;99.90
39881;DHT22;25554;44.954;10.068;2023-07-13T16:22:15;32.40;99.90
39881;DHT22;25554;44.954;10.068;2023-07-13T16:24:42;32.30;99.90
39881;DHT22;25554;44.954;10.068;2023-07-13T16:27:11;32.20;99.90
39881;DHT22;25554;44.954;10.068;2023-07-13T16:29:39;32.20;99.90
39881;DHT22;25554;44.954;10.068;2023-07-13T16:32:14;32.20;99.90
39881;DHT22;25554;44.954;10.068;2023-07-13T16:34:42;32.00;99.90
39881;DHT22;25554;44.954;10.068;2023-07-13T16:37:21;32.00;99.90
39881;DHT22;25554;44.954;10.068;2023-07-13T16:39:54;32.00;99.90
39881;DHT22;25554;44.954;10.068;2023-07-13T16:42:21;31.90;99.90
39881;DHT22;25554;44.954;10.068;2023-07-13T16:44:48;31.70;99.90
39881;DHT22;25554;44.954;10.068;2023-07-13T16:47:16;31.60;99.90
39881;DHT22;25554;44.954;10.068;2023-07-13T16:49:44;31.60;99.90
39881;DHT22;25554;44.954;10.068;2023-07-13T16:52:12;31.60;99.90
39881;DHT22;25554;44.954;10.068;2023-07-13T16:54:39;31.60;99.90
39881;DHT22;25554;44.954;10.068;2023-07-13T16:57:16;31.40;99.90
39881;DHT22;25554;44.954;10.068;2023-07-13T16:59:45;31.30;99.90
39881;DHT22;25554;44.954;10.068;2023-07-13T17:04:50;31.20;99.90
39881;DHT22;25554;44.954;10.068;2023-07-13T17:07:16;31.30;99.90
39881;DHT22;25554;44.954;10.068;2023-07-13T17:09:47;31.20;99.90
39881;DHT22;25554;44.954;10.068;2023-07-13T17:12:14;31.20;99.90
39881;DHT22;25554;44.954;10.068;2023-07-13T17:14:41;31.10;99.90
39881;DHT22;25554;44.954;10.068;2023-07-13T17:17:15;31.00;99.90
39881;DHT22;25554;44.954;10.068;2023-07-13T17:19:52;31.00;99.90
39881;DHT22;25554;44.954;10.068;2023-07-13T17:22:22;30.90;99.90
39881;DHT22;25554;44.954;10.068;2023-07-13T17:25:01;30.80;99.90
39881;DHT22;25554;44.954;10.068;2023-07-13T17:27:45;30.80;99.90
39881;DHT22;25554;44.954;10.068;2023-07-13T17:31:04;30.70;99.90
39881;DHT22;25554;44.954;10.068;2023-07-13T17:33:38;30.70;99.90
39881;DHT22;25554;44.954;10.068;2023-07-13T17:36:10;30.60;99.90
39881;DHT22;25554;44.954;10.068;2023-07-13T17:38:44;30.50;99.90
39881;DHT22;25554;44.954;10.068;2023-07-13T17:41:13;30.40;99.90
39881;DHT22;25554;44.954;10.068;2023-07-13T17:43:44;30.30;99.90
39881;DHT22;25554;44.954;10.068;2023-07-13T17:46:30;30.20;99.90
39881;DHT22;25554;44.954;10.068;2023-07-13T17:48:57;30.10;99.90
39881;DHT22;25554;44.954;10.068;2023-07-13T17:51:24;30.00;99.90
39881;DHT22;25554;44.954;10.068;2023-07-13T17:53:54;29.90;99.90
39881;DHT22;25554;44.954;10.068;2023-07-13T17:56:21;29.80;99.90
39881;DHT22;25554;44.954;10.068;2023-07-13T17:58:51;29.70;99.90
39881;DHT22;25554;44.954;10.068;2023-07-13T18:01:19;29.60;99.90
39881;DHT22;25554;44.954;10.068;2023-07-13T18:03:51;29.50;99.90
39881;DHT22;25554;44.954;10.068;2023-07-13T18:06:28;29.40;99.90
39881;DHT22;25554;44.954;10.068;2023-07-13T18:08:57;29.40;99.90
39881;DHT22;25554;44.954;10.068;2023-07-13T18:11:24;29.40;99.90
39881;DHT22;25554;44.954;10.068;2023-07-13T18:13:52;29.30;99.90
39881;DHT22;25554;44.954;10.068;2023-07-13T18:16:27;29.30;99.90
39881;DHT22;25554;44.954;10.068;2023-07-13T18:18:59;29.20;99.90
39881;DHT22;25554;44.954;10.068;2023-07-13T18:21:27;29.10;99.90
39881;DHT22;25554;44.954;10.068;2023-07-13T18:23:54;29.10;99.90
39881;DHT22;25554;44.954;10.068;2023-07-13T18:26:20;29.10;99.90
39881;DHT22;25554;44.954;10.068;2023-07-13T18:28:47;29.10;99.90
39881;DHT22;25554;44.954;10.068;2023-07-13T18:31:19;29.10;99.90
39881;DHT22;25554;44.954;10.068;2023-07-13T18:33:48;29.10;99.90
39881;DHT22;25554;44.954;10.068;2023-07-13T18:36:19;28.90;99.90
39881;DHT22;25554;44.954;10.068;2023-07-13T18:38:45;28.80;99.90